Time;durP1;ratioP1;P1;durP2;ratioP2;P2;SDS_P1;SDS_P2;PMS_P1;PMS_P2;Temp;Humidity;BMP_temperature;BMP_pressure;BME280_temperature;BME280_humidity;BME280_pressure;Samples;Min_cycle;Max_cycle;Signal;HPM_P1;HPM_P2
2022/07/25 00:02:14;;;;;;;16.77;14.73;;;;;;;21.85;100.00;96290.81;5043078;28;20586;-50
2022/07/25 00:04:45;;;;;;;17.67;14.20;;;;;;;21.78;100.00;96290.88;5040619;28;20087;-54
2022/07/25 00:07:14;;;;;;;21.42;14.77;;;;;;;21.86;100.00;96283.59;5036391;28;20089;-50
2022/07/25 00:09:42;;;;;;;16.50;14.80;;;;;;;21.87;100.00;96280.66;5030053;28;20518;-51
2022/07/25 00:12:13;;;;;;;16.10;14.38;;;;;;;21.86;100.00;96275.53;5044705;28;20079;-49
2022/07/25 00:14:41;;;;;;;16.02;14.32;;;;;;;21.81;100.00;96270.81;5044706;28;20064;-47
2022/07/25 00:17:10;;;;;;;15.80;14.07;;;;;;;21.72;100.00;96269.47;5046145;28;20079;-52
2022/07/25 00:19:38;;;;;;;16.73;14.73;;;;;;;21.69;100.00;96272.56;5045535;28;20068;-60
2022/07/25 00:22:08;;;;;;;17.35;15.52;;;;;;;21.69;100.00;96270.72;5043219;28;20072;-52
2022/07/25 00:24:36;;;;;;;18.05;15.93;;;;;;;21.66;100.00;96262.28;5039893;28;20073;-53
2022/07/25 00:27:04;;;;;;;18.02;15.73;;;;;;;21.62;100.00;96269.13;5045980;28;20081;-49
2022/07/25 00:29:33;;;;;;;16.02;13.38;;;;;;;21.27;100.00;96269.56;5049229;28;20075;-55
2022/07/25 00:32:05;;;;;;;16.38;14.25;;;;;;;21.27;100.00;96266.88;5041016;28;20088;-51
2022/07/25 00:34:34;;;;;;;19.60;15.18;;;;;;;21.06;100.00;96276.91;5048818;28;20069;-47
2022/07/25 00:37:02;;;;;;;16.45;14.15;;;;;;;21.24;100.00;96269.97;5049705;28;20068;-47
2022/07/25 00:39:32;;;;;;;17.10;14.50;;;;;;;21.26;100.00;96265.22;5049552;28;20092;-47
2022/07/25 00:42:03;;;;;;;17.83;14.98;;;;;;;20.86;100.00;96260.91;5049111;28;20095;-47
2022/07/25 00:44:33;;;;;;;20.40;14.75;;;;;;;20.70;100.00;96252.53;5049083;28;20541;-52
2022/07/25 00:47:01;;;;;;;17.42;14.77;;;;;;;20.85;100.00;96245.03;5048831;28;20080;-49
2022/07/25 00:49:30;;;;;;;17.80;15.35;;;;;;;20.71;100.00;96252.31;5045845;28;20487;-55
2022/07/25 00:51:58;;;;;;;17.38;15.32;;;;;;;20.69;100.00;96253.59;5048843;28;20608;-48
2022/07/25 00:54:26;;;;;;;18.70;14.45;;;;;;;21.06;100.00;96247.41;5049484;28;20083;-58
2022/07/25 00:56:56;;;;;;;16.63;13.82;;;;;;;21.15;100.00;96250.63;5049227;28;20420;-54
2022/07/25 00:59:24;;;;;;;15.55;13.43;;;;;;;21.13;100.00;96244.69;5048470;28;20122;-56
2022/07/25 01:01:53;;;;;;;15.23;13.63;;;;;;;21.06;100.00;96236.69;5045497;28;20069;-54
2022/07/25 01:04:22;;;;;;;16.15;13.55;;;;;;;21.01;100.00;96238.34;5043227;28;20456;-49
2022/07/25 01:06:50;;;;;;;15.23;13.15;;;;;;;20.91;100.00;96238.00;5048516;28;20159;-52
2022/07/25 01:09:19;;;;;;;16.05;13.60;;;;;;;20.77;100.00;96242.59;5046422;28;20072;-49
2022/07/25 01:11:47;;;;;;;15.98;13.75;;;;;;;20.79;100.00;96237.88;5044172;28;20076;-47
2022/07/25 01:14:17;;;;;;;16.98;12.88;;;;;;;20.77;100.00;96245.28;5043352;28;20073;-52
2022/07/25 01:16:45;;;;;;;17.83;13.43;;;;;;;20.67;100.00;96242.25;5048992;28;20092;-49
2022/07/25 01:19:14;;;;;;;15.23;13.23;;;;;;;20.74;100.00;96237.66;5048699;28;20081;-52
2022/07/25 01:21:43;;;;;;;17.35;14.07;;;;;;;20.76;100.00;96240.97;5049225;28;20113;-55
2022/07/25 01:24:12;;;;;;;18.80;15.45;;;;;;;20.71;100.00;96238.09;5048663;28;20091;-49
2022/07/25 01:26:40;;;;;;;17.38;14.60;;;;;;;20.65;100.00;96238.94;5048885;28;20073;-54
2022/07/25 01:29:09;;;;;;;16.33;13.30;;;;;;;20.62;100.00;96234.84;5048972;28;20123;-47
2022/07/25 01:31:37;;;;;;;15.15;13.60;;;;;;;20.38;100.00;96233.69;5048526;28;20477;-50
2022/07/25 01:34:05;;;;;;;15.88;13.20;;;;;;;20.26;100.00;96233.50;5046204;28;20072;-52
2022/07/25 01:36:34;;;;;;;16.23;13.70;;;;;;;20.12;100.00;96238.06;5045177;28;20427;-46
2022/07/25 01:39:04;;;;;;;14.43;12.98;;;;;;;20.22;100.00;96234.16;5044290;28;20614;-46
2022/07/25 01:41:33;;;;;;;15.90;13.77;;;;;;;20.12;100.00;96234.56;5046432;28;20103;-45
2022/07/25 01:44:01;;;;;;;16.63;13.82;;;;;;;20.21;100.00;96235.19;5048717;28;20728;-50
2022/07/25 01:46:30;;;;;;;20.58;15.25;;;;;;;20.14;100.00;96238.69;5049909;28;20076;-53
2022/07/25 01:48:58;;;;;;;19.15;14.88;;;;;;;20.11;100.00;96232.94;5047362;28;20084;-46
2022/07/25 01:51:26;;;;;;;18.98;16.73;;;;;;;20.24;100.00;96234.78;5048090;28;20064;-52
2022/07/25 01:53:55;;;;;;;20.90;16.33;;;;;;;20.04;100.00;96229.47;5046830;28;20105;-50
2022/07/25 01:56:26;;;;;;;17.90;16.02;;;;;;;19.79;100.00;96222.09;5048139;28;20077;-52
2022/07/25 01:58:57;;;;;;;18.70;16.05;;;;;;;19.72;100.00;96223.97;5047526;28;20080;-60
2022/07/25 02:01:26;;;;;;;20.55;15.85;;;;;;;19.80;100.00;96213.03;5043832;28;20836;-59
2022/07/25 02:03:54;;;;;;;23.15;15.27;;;;;;;20.20;100.00;96209.41;5045732;28;20073;-56
2022/07/25 02:06:23;;;;;;;16.70;14.93;;;;;;;20.18;100.00;96203.47;5047980;28;20076;-50
2022/07/25 02:08:51;;;;;;;17.27;14.82;;;;;;;20.13;100.00;96212.97;5047613;28;20511;-48
2022/07/25 02:11:19;;;;;;;17.05;14.52;;;;;;;20.01;100.00;96209.28;5048119;28;20061;-46
2022/07/25 02:13:49;;;;;;;19.00;15.65;;;;;;;19.99;100.00;96208.66;5045370;28;20439;-48
2022/07/25 02:16:18;;;;;;;19.05;15.70;;;;;;;19.97;100.00;96208.06;5050276;28;20515;-48
2022/07/25 02:18:56;;;;;;;18.42;15.15;;;;;;;19.94;100.00;96203.13;5047990;28;20088;-51
2022/07/25 02:21:24;;;;;;;19.52;15.50;;;;;;;19.94;100.00;96208.47;5048680;28;20076;-46
2022/07/25 02:23:53;;;;;;;20.27;15.30;;;;;;;19.94;100.00;96200.44;5047440;28;20094;-46
2022/07/25 02:26:21;;;;;;;19.05;16.08;;;;;;;19.82;100.00;96196.75;5046156;28;20080;-50
2022/07/25 02:28:51;;;;;;;20.60;16.95;;;;;;;19.85;100.00;96196.34;5046009;28;20072;-48
2022/07/25 02:31:19;;;;;;;18.52;16.50;;;;;;;19.91;100.00;96192.84;5045386;28;20077;-54
2022/07/25 02:33:47;;;;;;;19.65;16.60;;;;;;;19.77;100.00;96193.91;5046100;28;20080;-46
2022/07/25 02:36:16;;;;;;;17.73;15.00;;;;;;;19.97;100.00;96197.34;5046200;28;20080;-55
2022/07/25 02:38:45;;;;;;;20.88;16.17;;;;;;;19.89;100.00;96202.94;5045230;28;20091;-50
2022/07/25 02:41:13;;;;;;;19.63;14.98;;;;;;;19.92;100.00;96199.81;5046979;28;20431;-50
2022/07/25 02:43:41;;;;;;;17.48;14.52;;;;;;;19.87;100.00;96200.47;5047875;28;20081;-48
2022/07/25 02:46:11;;;;;;;16.55;14.85;;;;;;;19.92;100.00;96200.69;5046232;28;20590;-48
2022/07/25 02:48:39;;;;;;;19.90;15.32;;;;;;;19.74;100.00;96197.00;5044453;28;20076;-57
2022/07/25 02:51:08;;;;;;;18.85;16.13;;;;;;;19.71;100.00;96200.91;5042903;28;20072;-51
2022/07/25 02:53:36;;;;;;;18.80;15.60;;;;;;;19.89;100.00;96202.94;5047146;28;20080;-50
2022/07/25 02:56:25;;;;;;;19.90;16.40;;;;;;;19.70;100.00;96204.63;5048801;28;20069;-52
2022/07/25 02:58:57;;;;;;;16.05;14.35;;;;;;;19.72;100.00;96199.03;5046997;28;20747;-53
2022/07/25 03:01:27;;;;;;;18.40;15.50;;;;;;;19.81;100.00;96198.63;5045628;28;20498;-56
2022/07/25 03:03:55;;;;;;;19.52;15.25;;;;;;;19.64;100.00;96203.56;5047168;28;20507;-58
2022/07/25 03:06:24;;;;;;;17.23;15.40;;;;;;;19.75;100.00;96198.63;5046683;28;20073;-52
2022/07/25 03:08:52;;;;;;;16.80;15.05;;;;;;;19.68;100.00;96198.63;5043524;28;20547;-50
2022/07/25 03:11:21;;;;;;;18.20;15.63;;;;;;;19.61;100.00;96198.63;5044914;28;20099;-50
2022/07/25 03:13:49;;;;;;;19.23;15.95;;;;;;;19.65;100.00;96197.22;5046029;28;20694;-51
2022/07/25 03:16:18;;;;;;;19.90;16.50;;;;;;;19.48;100.00;96205.81;5048582;28;20099;-50
2022/07/25 03:18:48;;;;;;;17.27;15.05;;;;;;;19.77;100.00;96193.91;5046173;28;20081;-55
2022/07/25 03:21:16;;;;;;;19.23;15.93;;;;;;;19.78;100.00;96206.25;5045954;28;20080;-46
2022/07/25 03:23:44;;;;;;;18.65;15.23;;;;;;;19.69;100.00;96202.97;5045568;28;20084;-56
2022/07/25 03:26:19;;;;;;;26.48;16.08;;;;;;;19.72;100.00;96199.88;5047011;28;20072;-50
2022/07/25 03:28:47;;;;;;;18.25;15.45;;;;;;;19.63;100.00;96195.78;5045655;28;20080;-50
2022/07/25 03:31:16;;;;;;;17.98;16.05;;;;;;;19.47;100.00;96196.16;5047744;28;20088;-52
2022/07/25 03:33:44;;;;;;;19.10;15.60;;;;;;;19.45;100.00;96205.22;5046321;28;20092;-51
2022/07/25 03:36:14;;;;;;;19.63;14.93;;;;;;;19.53;100.00;96203.38;5041267;28;20069;-47
2022/07/25 03:38:43;;;;;;;18.63;15.20;;;;;;;19.40;100.00;96194.31;5044296;28;20080;-58
2022/07/25 03:41:12;;;;;;;20.70;17.40;;;;;;;19.32;100.00;96194.53;5043525;28;20120;-46
2022/07/25 03:43:40;;;;;;;17.60;15.55;;;;;;;19.46;100.00;96190.00;5047550;28;20055;-47
2022/07/25 03:46:09;;;;;;;19.33;15.45;;;;;;;19.56;100.00;96178.88;5047498;28;20519;-49
2022/07/25 03:48:37;;;;;;;19.95;15.80;;;;;;;19.40;100.00;96199.66;5045719;28;20091;-46
2022/07/25 03:51:06;;;;;;;21.15;17.55;;;;;;;19.25;100.00;96188.34;5044784;28;20522;-54
2022/07/25 03:54:00;;;;;;;22.48;17.05;;;;;;;19.19;100.00;96200.69;5043267;28;20096;-54
2022/07/25 03:56:24;;;;;;;20.42;18.15;;;;;;;19.33;100.00;96192.66;5044545;28;20080;-58
2022/07/25 03:58:53;;;;;;;27.52;18.20;;;;;;;19.38;100.00;96190.22;5039414;28;20077;-54
2022/07/25 04:01:21;;;;;;;23.40;19.17;;;;;;;19.51;100.00;96186.69;5044469;28;20080;-50
2022/07/25 04:03:49;;;;;;;22.83;19.13;;;;;;;19.53;100.00;96185.47;5041247;28;20738;-49
2022/07/25 04:06:18;;;;;;;22.95;20.10;;;;;;;19.69;100.00;96189.59;5042110;28;20481;-45
2022/07/25 04:08:48;;;;;;;23.75;19.27;;;;;;;19.62;100.00;96186.91;5044917;28;20084;-58
2022/07/25 04:11:16;;;;;;;25.23;20.27;;;;;;;20.35;100.00;96181.34;5043686;28;20081;-50
2022/07/25 04:13:45;;;;;;;21.00;18.65;;;;;;;21.38;100.00;96175.00;5041414;28;20506;-51
2022/07/25 04:16:13;;;;;;;18.90;16.77;;;;;;;22.14;100.00;96178.38;5044122;28;20080;-48
2022/07/25 04:18:49;;;;;;;20.02;17.90;;;;;;;21.83;100.00;96172.09;5043563;28;20096;-52
2022/07/25 04:21:18;;;;;;;19.33;17.33;;;;;;;21.45;100.00;96169.56;5046921;28;20084;-52
2022/07/25 04:23:49;;;;;;;20.33;17.80;;;;;;;22.17;100.00;96167.22;5045952;28;20068;-56
2022/07/25 04:26:17;;;;;;;;;;;;;;;22.82;100.00;96169.25;5043315;28;20073;-49
2022/07/25 04:28:45;;;;;;;21.77;17.40;;;;;;;23.06;100.00;96167.50;5042434;28;19984;-60
2022/07/25 04:31:14;;;;;;;20.55;16.67;;;;;;;24.26;100.00;96156.25;5044446;28;20081;-52
2022/07/25 04:33:42;;;;;;;19.15;17.15;;;;;;;24.90;100.00;96158.03;5044309;28;20080;-52
2022/07/25 04:36:11;;;;;;;17.35;15.68;;;;;;;25.06;100.00;96151.84;5043960;28;20080;-52
2022/07/25 04:38:39;;;;;;;18.33;16.17;;;;;;;25.60;100.00;96146.78;5043986;28;20087;-51
2022/07/25 04:41:09;;;;;;;20.77;15.85;;;;;;;26.00;100.00;96143.88;5044998;28;20081;-56
2022/07/25 04:43:37;;;;;;;19.85;17.45;;;;;;;25.72;100.00;96144.00;5044995;28;20099;-52
2022/07/25 04:46:06;;;;;;;19.23;15.50;;;;;;;26.31;100.00;96144.28;5045348;28;20111;-56
2022/07/25 04:48:34;;;;;;;18.70;16.70;;;;;;;26.15;100.00;96147.84;5044641;28;20084;-49
2022/07/25 04:51:03;;;;;;;18.33;16.52;;;;;;;26.58;100.00;96144.34;5043883;28;20084;-52
2022/07/25 04:53:33;;;;;;;17.67;15.88;;;;;;;27.36;100.00;96150.25;5045967;28;20099;-49
2022/07/25 04:56:01;;;;;;;17.10;15.32;;;;;;;27.71;100.00;96145.38;5044157;28;20080;-50
2022/07/25 04:58:31;;;;;;;17.58;15.63;;;;;;;27.84;100.00;96144.91;5041655;28;20141;-51
2022/07/25 05:00:59;;;;;;;17.73;15.65;;;;;;;28.03;100.00;96143.41;5040415;28;20084;-49
2022/07/25 05:03:28;;;;;;;19.25;15.57;;;;;;;28.15;100.00;96141.31;5042780;28;20084;-47
2022/07/25 05:05:56;;;;;;;17.38;15.68;;;;;;;28.19;100.00;96140.78;5045719;28;20096;-55
2022/07/25 05:08:24;;;;;;;20.58;17.65;;;;;;;27.83;100.00;96141.41;5045664;28;20076;-56
2022/07/25 05:10:53;;;;;;;20.27;17.13;;;;;;;28.24;100.00;96138.91;5039588;28;20069;-52
2022/07/25 05:13:21;;;;;;;20.77;17.50;;;;;;;27.98;100.00;96137.13;5043059;28;20091;-50
2022/07/25 05:15:51;;;;;;;19.77;17.88;;;;;;;27.94;100.00;96139.56;5041898;28;20084;-54
2022/07/25 05:18:20;;;;;;;21.10;17.58;;;;;;;27.80;100.00;96135.69;5044560;28;20076;-52
2022/07/25 05:20:48;;;;;;;20.50;17.85;;;;;;;26.71;100.00;96138.53;5041578;28;20099;-60
2022/07/25 05:23:17;;;;;;;20.20;18.20;;;;;;;26.23;100.00;96136.63;5044132;28;20084;-50
2022/07/25 05:25:45;;;;;;;19.15;17.25;;;;;;;27.52;100.00;96129.50;5044268;28;20566;-52
2022/07/25 05:28:14;;;;;;;19.20;17.20;;;;;;;28.17;100.00;96138.31;5042618;28;20084;-56
2022/07/25 05:30:43;;;;;;;19.15;17.33;;;;;;;28.45;100.00;96131.69;5042461;28;20818;-55
2022/07/25 05:33:12;;;;;;;19.38;17.45;;;;;;;28.42;100.00;96136.81;5040786;28;20084;-56
2022/07/25 05:35:41;;;;;;;18.27;16.52;;;;;;;28.92;100.00;96135.34;5043648;28;20068;-52
2022/07/25 05:38:09;;;;;;;20.50;17.33;;;;;;;28.79;100.00;96133.94;5042878;28;20081;-51
2022/07/25 05:40:38;;;;;;;21.60;17.00;;;;;;;27.91;100.00;96126.56;5042975;28;20076;-56
2022/07/25 05:43:06;;;;;;;19.67;17.60;;;;;;;27.03;100.00;96139.66;5043842;28;20088;-57
2022/07/25 05:45:34;;;;;;;18.40;16.33;;;;;;;27.53;100.00;96131.16;5041713;28;20089;-56
2022/07/25 05:48:03;;;;;;;18.27;16.20;;;;;;;27.37;100.00;96134.84;5043424;28;20104;-51
2022/07/25 05:50:32;;;;;;;18.42;16.48;;;;;;;27.12;100.00;96136.25;5041296;28;20083;-51
2022/07/25 05:53:01;;;;;;;;;;;;;;;27.30;100.00;96135.03;5043672;28;20041;-54
2022/07/25 05:55:29;;;;;;;17.40;15.40;;;;;;;27.83;100.00;96129.75;5044790;28;19967;-54
2022/07/25 05:57:57;;;;;;;17.98;16.17;;;;;;;27.38;100.00;96126.44;5042145;28;20626;-52
2022/07/25 06:00:26;;;;;;;18.15;16.20;;;;;;;28.07;100.00;96122.00;5040068;28;20471;-56
2022/07/25 06:02:58;;;;;;;17.23;15.52;;;;;;;27.91;100.00;96129.25;5043842;28;20696;-53
2022/07/25 06:05:26;;;;;;;16.88;15.13;;;;;;;27.22;100.00;96130.13;5044147;28;20081;-53
2022/07/25 06:07:56;;;;;;;17.83;15.95;;;;;;;27.22;100.00;96127.41;5043770;28;20093;-52
2022/07/25 06:10:24;;;;;;;20.05;17.50;;;;;;;26.78;100.00;96124.81;5044051;28;20084;-52
2022/07/25 06:12:53;;;;;;;19.08;17.10;;;;;;;26.11;100.00;96125.91;5042951;28;21957;-49
2022/07/25 06:15:21;;;;;;;19.65;17.08;;;;;;;25.42;100.00;96126.28;5042085;28;20099;-53
2022/07/25 06:17:54;;;;;;;19.63;16.83;;;;;;;25.72;100.00;96117.81;5041933;28;20231;-53
2022/07/25 06:20:23;;;;;;;18.55;16.67;;;;;;;26.14;100.00;96111.91;5042291;28;20099;-50
2022/07/25 06:22:52;;;;;;;18.63;16.73;;;;;;;26.27;100.00;96118.81;5049251;28;20524;-52
2022/07/25 06:25:22;;;;;;;18.47;16.77;;;;;;;25.62;100.00;96117.66;5048903;28;20076;-58
2022/07/25 06:27:50;;;;;;;18.20;16.40;;;;;;;25.92;100.00;96120.00;5051280;28;21267;-53
2022/07/25 06:30:19;;;;;;;18.23;16.33;;;;;;;26.03;100.00;96123.66;5047097;28;20081;-56
2022/07/25 06:32:48;;;;;;;17.83;15.93;;;;;;;26.21;100.00;96120.63;5053540;28;20080;-53
2022/07/25 06:35:16;;;;;;;18.92;15.25;;;;;;;26.63;100.00;96117.34;5052821;28;20487;-46
2022/07/25 06:37:45;;;;;;;18.80;16.23;;;;;;;26.54;100.00;96110.78;5045290;28;20084;-49
2022/07/25 06:40:13;;;;;;;17.67;15.82;;;;;;;26.91;100.00;96118.16;5044721;28;20084;-48
2022/07/25 06:42:44;;;;;;;17.85;16.00;;;;;;;26.69;100.00;96110.09;5051526;28;20076;-54
2022/07/25 06:45:14;;;;;;;19.30;15.15;;;;;;;26.76;100.00;96105.31;5045988;28;20188;-50
2022/07/25 06:47:43;;;;;;;18.15;14.82;;;;;;;27.56;100.00;96102.72;5046528;28;20096;-52
2022/07/25 06:50:14;;;;;;;18.20;16.30;;;;;;;27.32;100.00;96103.09;5048284;28;20530;-51
2022/07/25 06:52:43;;;;;;;17.45;15.68;;;;;;;27.13;100.00;96099.97;5049275;28;20068;-52
2022/07/25 06:55:12;;;;;;;16.98;15.18;;;;;;;27.25;100.00;96096.28;5046014;28;20092;-56
2022/07/25 06:57:43;;;;;;;16.33;14.63;;;;;;;27.77;100.00;96092.84;5043211;28;20088;-54
2022/07/25 07:00:13;;;;;;;16.70;15.07;;;;;;;27.98;100.00;96086.47;5045349;28;20096;-50
2022/07/25 07:02:48;;;;;;;17.95;16.15;;;;;;;27.36;100.00;96100.72;5043395;28;20739;-57
2022/07/25 07:05:17;;;;;;;17.52;14.82;;;;;;;27.52;100.00;96085.38;5045134;28;20083;-58
2022/07/25 07:07:45;;;;;;;16.70;14.98;;;;;;;28.57;100.00;96091.56;5046886;28;20049;-50
2022/07/25 07:10:15;;;;;;;17.30;15.23;;;;;;;28.74;100.00;96087.81;5050559;28;20088;-53
2022/07/25 07:12:45;;;;;;;17.30;15.15;;;;;;;28.89;100.00;96087.00;5051043;28;20092;-49
2022/07/25 07:15:14;;;;;;;16.65;14.77;;;;;;;28.95;100.00;96086.75;5051153;28;20084;-56
2022/07/25 07:17:43;;;;;;;16.08;14.35;;;;;;;29.17;100.00;96082.97;5049833;28;20089;-50
2022/07/25 07:20:12;;;;;;;17.40;15.55;;;;;;;28.01;100.00;96085.94;5050395;28;20085;-45
2022/07/25 07:22:45;;;;;;;17.58;15.40;;;;;;;28.75;100.00;96087.53;5050566;28;20100;-49
2022/07/25 07:25:14;;;;;;;16.25;14.48;;;;;;;28.96;100.00;96077.50;5050959;28;20076;-56
2022/07/25 07:27:44;;;;;;;16.98;15.27;;;;;;;28.78;100.00;96083.47;5050684;28;20092;-56
2022/07/25 07:30:13;;;;;;;;;;;;;;;29.33;100.00;96071.03;5051083;28;20084;-51
2022/07/25 07:32:42;;;;;;;16.17;14.48;;;;;;;29.64;100.00;96079.16;5050647;28;20395;-49
2022/07/25 07:35:11;;;;;;;17.20;14.45;;;;;;;29.83;100.00;96066.56;5049286;28;20080;-49
2022/07/25 07:37:39;;;;;;;17.33;15.13;;;;;;;29.83;100.00;96068.47;5048550;28;20083;-51
2022/07/25 07:40:12;;;;;;;20.80;14.88;;;;;;;30.01;100.00;96067.91;5050422;28;20543;-54
2022/07/25 07:42:48;;;;;;;17.02;14.73;;;;;;;30.14;100.00;96061.03;5050397;28;20089;-55
2022/07/25 07:45:19;;;;;;;18.83;14.88;;;;;;;30.69;100.00;96070.81;5050123;28;20519;-54
2022/07/25 07:47:48;;;;;;;16.05;14.45;;;;;;;30.16;100.00;96061.56;5049993;28;20076;-57
2022/07/25 07:50:18;;;;;;;18.40;14.37;;;;;;;30.10;100.00;96071.66;5050205;28;20133;-50
2022/07/25 07:52:47;;;;;;;17.17;14.95;;;;;;;29.99;100.00;96068.16;5050233;28;20080;-51
2022/07/25 07:55:44;;;;;;;17.65;14.93;;;;;;;30.06;100.00;96065.13;5045993;28;20064;-46
2022/07/25 07:58:15;;;;;;;18.25;14.27;;;;;;;30.65;100.00;96060.78;5049477;28;20072;-52
2022/07/25 08:00:46;;;;;;;16.88;14.35;;;;;;;30.57;100.00;96064.09;5049283;28;20117;-52
2022/07/25 08:03:17;;;;;;;18.77;14.63;;;;;;;30.93;100.00;96070.13;5049617;28;20076;-49
2022/07/25 08:05:47;;;;;;;15.30;13.73;;;;;;;31.09;100.00;96065.38;5052997;28;20076;-49
2022/07/25 08:08:16;;;;;;;18.98;14.48;;;;;;;31.17;100.00;96059.31;5050003;28;20080;-49
2022/07/25 08:10:47;;;;;;;17.70;14.27;;;;;;;30.78;100.00;96062.91;5049386;28;20084;-60
2022/07/25 08:13:18;;;;;;;15.32;13.82;;;;;;;30.59;100.00;96061.91;5049778;28;20081;-52
2022/07/25 08:15:48;;;;;;;14.85;13.45;;;;;;;31.48;100.00;96061.78;5049955;28;20085;-47
2022/07/25 08:18:17;;;;;;;15.60;13.63;;;;;;;31.04;100.00;96060.81;5043601;28;20163;-57
2022/07/25 08:20:46;;;;;;;16.50;13.93;;;;;;;31.39;100.00;96059.69;5049139;28;20084;-51
2022/07/25 08:23:14;;;;;;;15.80;14.07;;;;;;;31.51;100.00;96058.50;5051807;28;20091;-54
2022/07/25 08:25:43;;;;;;;15.93;13.55;;;;;;;31.41;100.00;96064.84;5049732;28;20080;-52
2022/07/25 08:28:12;;;;;;;16.27;14.63;;;;;;;30.93;100.00;96061.97;5048983;28;20084;-52
2022/07/25 08:30:42;;;;;;;16.02;14.38;;;;;;;31.37;100.00;96058.34;5046709;28;20088;-55
2022/07/25 08:33:12;;;;;;;;;;;;;;;31.53;100.00;96042.69;5044306;28;20085;-51
2022/07/25 08:35:41;;;;;;;16.10;13.65;;;;;;;31.66;100.00;96047.44;5049095;28;19958;-55
2022/07/25 08:38:10;;;;;;;15.27;13.77;;;;;;;31.49;100.00;96038.88;5049437;28;20088;-49
2022/07/25 08:40:39;;;;;;;15.83;13.40;;;;;;;31.83;100.00;96039.63;5049342;28;20080;-55
2022/07/25 08:43:11;;;;;;;17.13;14.65;;;;;;;32.04;96.88;96039.41;5049109;28;21040;-52
2022/07/25 08:45:44;;;;;;;17.58;13.98;;;;;;;32.60;93.58;96035.94;5048952;28;20080;-49
2022/07/25 08:48:13;;;;;;;15.93;14.25;;;;;;;32.56;90.99;96037.63;5049057;28;20041;-54
2022/07/25 08:50:42;;;;;;;17.23;13.75;;;;;;;32.94;82.04;96027.47;5049272;28;20478;-50
2022/07/25 08:53:10;;;;;;;14.60;12.98;;;;;;;32.97;87.82;96029.66;5048735;28;20571;-56
2022/07/25 08:55:58;;;;;;;16.77;13.85;;;;;;;32.96;79.21;96030.72;5045792;28;20083;-45
2022/07/25 08:58:27;;;;;;;15.45;13.70;;;;;;;32.79;79.32;96030.44;5042525;28;20489;-57
2022/07/25 09:00:57;;;;;;;14.93;13.50;;;;;;;33.02;78.00;96023.28;5048920;28;20065;-58
2022/07/25 09:03:26;;;;;;;14.00;12.68;;;;;;;33.07;89.75;96023.19;5048983;28;20088;-63
2022/07/25 09:05:55;;;;;;;15.25;13.68;;;;;;;33.11;86.07;96028.88;5048943;28;20083;-53
2022/07/25 09:08:23;;;;;;;14.57;13.20;;;;;;;33.45;76.92;96023.06;5049068;28;20543;-48
2022/07/25 09:10:52;;;;;;;14.75;13.25;;;;;;;33.68;75.04;96018.56;5048398;28;20077;-46
2022/07/25 09:13:22;;;;;;;15.05;13.65;;;;;;;33.66;68.60;96018.06;5048958;28;20092;-51
2022/07/25 09:15:52;;;;;;;15.05;13.45;;;;;;;33.52;68.32;96007.94;5048964;28;20088;-56
2022/07/25 09:18:24;;;;;;;15.98;13.00;;;;;;;33.62;69.70;96020.59;5048956;28;20095;-53
2022/07/25 09:20:57;;;;;;;13.95;12.55;;;;;;;33.37;67.62;96021.84;5048558;28;20069;-54
2022/07/25 09:23:30;;;;;;;15.38;12.57;;;;;;;33.38;65.74;96015.28;5048840;28;20129;-52
2022/07/25 09:26:03;;;;;;;13.88;12.27;;;;;;;33.30;74.25;96013.22;5044504;28;20072;-55
2022/07/25 09:28:32;;;;;;;14.57;13.07;;;;;;;33.14;66.57;96011.84;5033550;28;20084;-54
2022/07/25 09:31:01;;;;;;;13.63;12.00;;;;;;;33.98;66.06;96007.00;5046203;28;20080;-52
2022/07/25 09:33:32;;;;;;;13.13;11.85;;;;;;;33.38;70.85;95998.03;5048783;28;20512;-52
2022/07/25 09:36:10;;;;;;;13.05;11.75;;;;;;;33.63;58.70;96000.34;5048582;28;20554;-55
2022/07/25 09:38:38;;;;;;;12.70;11.30;;;;;;;33.58;62.35;96000.41;5041947;28;20080;-55
2022/07/25 09:41:08;;;;;;;12.65;11.35;;;;;;;32.98;59.93;96005.88;5041354;28;20456;-51
2022/07/25 09:43:37;;;;;;;13.55;11.75;;;;;;;33.45;59.73;95999.28;5041405;28;20085;-60
2022/07/25 09:46:06;;;;;;;14.40;11.00;;;;;;;33.29;62.39;95990.53;5043572;28;20080;-58
2022/07/25 09:48:36;;;;;;;13.38;12.15;;;;;;;33.92;64.08;95999.19;5041895;28;20080;-59
2022/07/25 09:51:06;;;;;;;14.20;12.55;;;;;;;33.78;62.55;95999.22;5041333;28;20104;-53
2022/07/25 09:53:36;;;;;;;13.73;12.38;;;;;;;33.94;65.75;95989.56;5040493;28;20111;-60
2022/07/25 09:56:04;;;;;;;13.43;12.23;;;;;;;34.12;63.38;95996.06;5040611;28;20087;-54
2022/07/25 09:58:33;;;;;;;13.20;11.75;;;;;;;33.89;65.13;95988.88;5042230;28;20100;-57
2022/07/25 10:01:03;;;;;;;14.13;12.48;;;;;;;34.08;69.27;95984.13;5046876;28;20104;-52
2022/07/25 10:03:45;;;;;;;13.55;12.20;;;;;;;34.23;65.67;95982.97;5046786;28;20503;-53
2022/07/25 10:06:20;;;;;;;13.10;11.80;;;;;;;34.15;67.10;95989.19;5047391;28;20076;-55
2022/07/25 10:08:49;;;;;;;13.38;12.05;;;;;;;33.89;65.56;95981.47;5043743;28;20087;-49
2022/07/25 10:11:21;;;;;;;14.05;12.65;;;;;;;34.09;61.66;95985.72;5048133;28;20535;-53
2022/07/25 10:13:50;;;;;;;13.50;12.20;;;;;;;34.54;61.07;95982.28;5029183;28;20053;-52
2022/07/25 10:16:20;;;;;;;13.02;11.48;;;;;;;34.22;62.75;95986.81;5043298;28;20081;-58
2022/07/25 10:18:52;;;;;;;12.43;11.23;;;;;;;33.95;65.14;95972.03;5045049;28;20079;-49
2022/07/25 10:21:21;;;;;;;13.10;11.80;;;;;;;33.83;61.21;95974.50;5041725;28;20123;-55
2022/07/25 10:24:00;;;;;;;11.93;10.80;;;;;;;34.24;62.56;95973.63;5044184;28;20085;-49
2022/07/25 10:26:29;;;;;;;16.50;11.00;;;;;;;34.35;58.47;95975.03;5045208;28;20471;-52
2022/07/25 10:28:57;;;;;;;12.17;10.97;;;;;;;34.51;58.97;95970.03;5045409;28;20507;-54
2022/07/25 10:31:33;;;;;;;12.23;11.03;;;;;;;34.83;53.94;95974.47;5043273;28;20084;-51
2022/07/25 10:34:04;;;;;;;11.60;10.50;;;;;;;34.64;53.98;95971.09;5039405;28;20083;-63
2022/07/25 10:36:44;;;;;;;10.85;9.75;;;;;;;34.97;50.89;95968.91;5037937;28;20083;-57
2022/07/25 10:39:15;;;;;;;11.85;10.65;;;;;;;34.63;53.54;95962.09;5044808;28;20091;-61
2022/07/25 10:41:49;;;;;;;13.25;11.00;;;;;;;35.07;55.23;95954.19;5045175;28;20179;-48
2022/07/25 10:44:17;;;;;;;12.43;11.13;;;;;;;35.27;53.32;95963.78;5041431;28;20095;-56
2022/07/25 10:46:47;;;;;;;11.73;10.52;;;;;;;35.25;53.03;95961.38;5043405;28;20076;-50
2022/07/25 10:49:21;;;;;;;11.38;9.88;;;;;;;34.70;45.95;95942.47;5042035;28;20076;-57
2022/07/25 10:52:01;;;;;;;10.88;9.80;;;;;;;35.31;50.26;95937.38;5043764;28;20091;-52
2022/07/25 10:54:34;;;;;;;10.90;9.30;;;;;;;34.93;47.77;95935.06;5040645;28;20077;-57
2022/07/25 10:57:19;;;;;;;;;;;;;;;35.19;49.56;95933.25;5043548;28;20068;-57
2022/07/25 10:59:48;;;;;;;11.60;10.50;;;;;;;35.41;50.22;95932.41;5044461;28;19960;-58
2022/07/25 11:02:17;;;;;;;12.27;10.35;;;;;;;34.94;49.72;95939.41;5043369;28;20088;-55
2022/07/25 11:04:58;;;;;;;11.00;10.00;;;;;;;35.52;51.00;95937.63;5043512;28;20086;-57
2022/07/25 11:07:27;;;;;;;12.63;10.35;;;;;;;35.90;47.85;95926.91;5042132;28;20565;-58
2022/07/25 11:09:57;;;;;;;15.15;10.38;;;;;;;35.86;49.20;95923.22;5042769;28;20420;-55
2022/07/25 11:12:25;;;;;;;12.27;10.13;;;;;;;35.48;47.77;95929.22;5041031;28;20060;-54
2022/07/25 11:14:57;;;;;;;10.73;9.63;;;;;;;35.43;45.09;95916.44;5043237;28;20076;-51
2022/07/25 11:17:25;;;;;;;10.63;8.70;;;;;;;35.30;42.87;95911.06;5042118;28;20084;-53
2022/07/25 11:19:57;;;;;;;11.05;10.05;;;;;;;35.75;46.87;95921.88;5046091;28;20080;-53
2022/07/25 11:22:26;;;;;;;14.48;9.70;;;;;;;36.22;46.02;95914.69;5042028;28;20120;-56
2022/07/25 11:24:55;;;;;;;10.70;9.70;;;;;;;36.50;43.19;95909.72;5044257;28;20080;-54